Cook Corners, NY

12:37 PM EDT on June 23, 2017 (GMT -0400)
Chautauqua County-Dunkirk | | Change Station

Elev 692 ft 42.49 °N, 79.27 °W | Updated 14 minutes ago

Overcast
Overcast
72 °F
Feels Like 72 °F
N
10
Wind Variable Wind from SSW

Today
High -- | Low -- °F
--% Chance of Precip.
Yesterday
High -- | Low -- °F
Precip. -- in
Pressure 29.61 in
Visibility 10.0 miles
Clouds Mostly Cloudy 2600 ft
Overcast 3700 ft
Dew Point 70 °F
Humidity 93%
Rainfall 0.16 in
Snow Depth Not available.
5:40 AM 8:58 PM
Waning Crescent, 0% visible
SPECI KDKK 231623Z AUTO 20009KT 10SM BKN026 OVC037 22/21 A2961 RMK AO2 RAE20 P0002 T02220211 $
Pressure 29.61 in
Visibility 10.0 miles
Clouds Mostly Cloudy 2600 ft
Overcast 3700 ft
Dew Point 70 °F
Humidity 93%
Rainfall 0.16 in
Snow Depth Not available.
5:40 AM 8:58 PM
Waning Crescent, 0% visible
SPECI KDKK 231623Z AUTO 20009KT 10SM BKN026 OVC037 22/21 A2961 RMK AO2 RAE20 P0002 T02220211 $

Get Severe Weather Alerts

Thanks for signing up!

Be on the lookout for a verification email in your inbox.

You'll start receiving the daily forecast at 6 AM.

×

10-Day Weather Forecast

Almanac

Astronomy

Jun. 23, 2017 Rise Set
Actual Time
Civil Twilight
Nautical Twilight
Astronomical Twilight
Moon
Length of Visible Light
Length of Day
Tomorrow will be .
, % of the Moon is Illuminated

Today's Extremes

State Highs State Lows

Community

WunderPhotos

Category 6

Welcome to Category 6. This is the collective home for Weather Underground's featured writeups by Dr. Jeff Masters (right), Bob Henson (left), Chris Burt, and other regular contributors.

Nearby

Air Quality

  Air Quality AQ Index Pollutant
Not available.

Snow Depth

Station Depth Elevation

Earthquake Activity

City Distance Mag. Time & Date
Minimum magnitude displayed is 2.5.

Coastal Water Temperatures

Place Temperature

Stations

Nearby Weather Stations

Station Location Temp. Windchill Dew Point Humidity Wind Precip. Elev Updated Type
                   

Watches & Warnings

There are currently no watches in effect.